Terminal Aerodrome Forecast
Issued by NWS

Home | Current Version | Previous Version | Graphics & Text | Print | Product List | Glossary On
Versions: 1 2 3 4 5 6 7 8 9 10 11 12
000
FTUS43 KMPX 141739
TAFRWF
TAF
KRWF 141739Z 1418/1518 20014KT P6SM OVC020
     FM142000 22015KT 1 1/2SM -SN BR OVC010
      TEMPO 1420/1422 3/4SM -SN BR OVC008
     FM150000 32018G25KT 4SM -SN BLSN OVC015
     FM151200 32017G24KT P6SM OVC015=

USA.gov is the U.S. government's official web portal to all federal, state and local government web resources and services.